sensor_id;sensor_type;location;lat;lon;timestamp;pressure;altitude;pressure_sealevel;temperature;humidity
21401;BME280;18038;50.166;18.908;2022-09-13T00:00:38;97905.97;;;9.57;74.29
21401;BME280;18038;50.166;18.908;2022-09-13T00:03:45;97910.81;;;9.46;74.82
21401;BME280;18038;50.166;18.908;2022-09-13T00:06:51;97907.75;;;9.49;74.72
21401;BME280;18038;50.166;18.908;2022-09-13T00:09:56;97894.28;;;9.58;74.73
21401;BME280;18038;50.166;18.908;2022-09-13T00:13:05;97896.19;;;9.64;73.97
21401;BME280;18038;50.166;18.908;2022-09-13T00:16:13;97895.75;;;9.60;74.52
21401;BME280;18038;50.166;18.908;2022-09-13T00:19:21;97887.69;;;9.53;74.77
21401;BME280;18038;50.166;18.908;2022-09-13T00:22:27;97895.44;;;9.48;75.39
21401;BME280;18038;50.166;18.908;2022-09-13T00:25:32;97890.22;;;9.40;75.61
21401;BME280;18038;50.166;18.908;2022-09-13T00:28:41;97889.59;;;9.38;75.48
21401;BME280;18038;50.166;18.908;2022-09-13T00:31:47;97892.38;;;9.30;75.42
21401;BME280;18038;50.166;18.908;2022-09-13T00:34:53;97887.44;;;9.27;75.87
21401;BME280;18038;50.166;18.908;2022-09-13T00:37:59;97877.03;;;9.32;75.72
21401;BME280;18038;50.166;18.908;2022-09-13T00:41:09;97875.00;;;9.34;76.04
21401;BME280;18038;50.166;18.908;2022-09-13T00:44:52;97872.63;;;9.46;75.64
21401;BME280;18038;50.166;18.908;2022-09-13T00:48:04;97870.69;;;9.54;75.43
21401;BME280;18038;50.166;18.908;2022-09-13T00:51:12;97874.22;;;9.62;75.08
21401;BME280;18038;50.166;18.908;2022-09-13T00:54:25;97867.28;;;9.67;75.32
21401;BME280;18038;50.166;18.908;2022-09-13T00:57:35;97871.03;;;9.73;75.05
21401;BME280;18038;50.166;18.908;2022-09-13T01:00:47;97876.41;;;9.80;74.46
21401;BME280;18038;50.166;18.908;2022-09-13T01:03:54;97875.84;;;9.84;74.76
21401;BME280;18038;50.166;18.908;2022-09-13T01:07:03;97871.72;;;9.82;74.91
21401;BME280;18038;50.166;18.908;2022-09-13T01:10:13;97882.94;;;9.77;74.83
21401;BME280;18038;50.166;18.908;2022-09-13T01:13:21;97871.78;;;9.67;75.52
21401;BME280;18038;50.166;18.908;2022-09-13T01:16:32;97880.56;;;9.61;75.58
21401;BME280;18038;50.166;18.908;2022-09-13T01:19:39;97869.25;;;9.59;75.97
21401;BME280;18038;50.166;18.908;2022-09-13T01:27:12;97874.56;;;9.52;75.66
21401;BME280;18038;50.166;18.908;2022-09-13T01:30:35;97869.72;;;9.41;76.41
21401;BME280;18038;50.166;18.908;2022-09-13T01:33:56;97861.69;;;9.34;76.07
21401;BME280;18038;50.166;18.908;2022-09-13T01:37:38;97863.72;;;9.32;75.78
21401;BME280;18038;50.166;18.908;2022-09-13T01:41:04;97873.31;;;8.90;76.56
21401;BME280;18038;50.166;18.908;2022-09-13T01:44:29;97867.22;;;8.60;77.76
21401;BME280;18038;50.166;18.908;2022-09-13T01:47:57;97865.00;;;8.63;77.80
21401;BME280;18038;50.166;18.908;2022-09-13T01:51:14;97864.66;;;8.52;78.69
21401;BME280;18038;50.166;18.908;2022-09-13T01:54:36;97853.22;;;8.51;78.54
21401;BME280;18038;50.166;18.908;2022-09-13T01:57:55;97853.38;;;8.50;79.00
21401;BME280;18038;50.166;18.908;2022-09-13T02:01:17;97842.91;;;8.48;78.51
21401;BME280;18038;50.166;18.908;2022-09-13T02:04:38;97846.69;;;8.54;80.63
21401;BME280;18038;50.166;18.908;2022-09-13T02:07:56;97844.84;;;8.54;79.35
21401;BME280;18038;50.166;18.908;2022-09-13T02:11:09;97837.63;;;8.33;79.60
21401;BME280;18038;50.166;18.908;2022-09-13T02:14:21;97835.78;;;8.19;79.55
21401;BME280;18038;50.166;18.908;2022-09-13T02:17:37;97833.69;;;7.99;80.69
21401;BME280;18038;50.166;18.908;2022-09-13T02:20:51;97836.16;;;7.86;81.73
21401;BME280;18038;50.166;18.908;2022-09-13T02:24:06;97833.75;;;7.76;81.76
21401;BME280;18038;50.166;18.908;2022-09-13T02:27:20;97829.50;;;7.38;82.72
21401;BME280;18038;50.166;18.908;2022-09-13T02:30:33;97826.16;;;7.59;81.97
21401;BME280;18038;50.166;18.908;2022-09-13T02:33:50;97818.19;;;7.59;81.58
21401;BME280;18038;50.166;18.908;2022-09-13T02:37:08;97816.06;;;7.54;81.65
21401;BME280;18038;50.166;18.908;2022-09-13T02:40:20;97823.59;;;7.27;83.08
21401;BME280;18038;50.166;18.908;2022-09-13T02:43:36;97825.75;;;7.24;83.93
21401;BME280;18038;50.166;18.908;2022-09-13T02:47:05;97810.53;;;7.41;83.45
21401;BME280;18038;50.166;18.908;2022-09-13T02:50:32;97806.22;;;7.40;83.70
21401;BME280;18038;50.166;18.908;2022-09-13T02:54:06;97808.09;;;7.54;83.77
21401;BME280;18038;50.166;18.908;2022-09-13T02:57:26;97811.47;;;7.63;83.67
21401;BME280;18038;50.166;18.908;2022-09-13T03:00:37;97812.94;;;7.65;84.16
21401;BME280;18038;50.166;18.908;2022-09-13T03:03:43;97802.50;;;7.78;83.55
21401;BME280;18038;50.166;18.908;2022-09-13T03:06:49;97796.16;;;7.79;84.58
21401;BME280;18038;50.166;18.908;2022-09-13T03:10:01;97801.75;;;7.85;84.82
21401;BME280;18038;50.166;18.908;2022-09-13T03:17:35;97797.38;;;8.07;83.43
21401;BME280;18038;50.166;18.908;2022-09-13T03:21:01;97798.19;;;8.07;83.59
21401;BME280;18038;50.166;18.908;2022-09-13T03:24:23;97796.63;;;7.98;83.95
21401;BME280;18038;50.166;18.908;2022-09-13T03:27:44;97785.81;;;7.99;83.63
21401;BME280;18038;50.166;18.908;2022-09-13T03:31:06;97791.56;;;8.18;83.03
21401;BME280;18038;50.166;18.908;2022-09-13T03:34:27;97793.94;;;8.28;82.65
21401;BME280;18038;50.166;18.908;2022-09-13T03:37:51;97789.63;;;8.27;82.13
21401;BME280;18038;50.166;18.908;2022-09-13T03:41:08;97789.25;;;8.30;82.53
21401;BME280;18038;50.166;18.908;2022-09-13T03:44:23;97791.34;;;8.34;82.45
21401;BME280;18038;50.166;18.908;2022-09-13T03:47:41;97784.41;;;8.33;82.13
21401;BME280;18038;50.166;18.908;2022-09-13T03:50:50;97784.94;;;8.43;81.43
21401;BME280;18038;50.166;18.908;2022-09-13T03:54:01;97779.59;;;8.43;81.33
21401;BME280;18038;50.166;18.908;2022-09-13T03:57:12;97769.69;;;8.37;81.70
21401;BME280;18038;50.166;18.908;2022-09-13T04:00:22;97776.47;;;8.40;81.74
21401;BME280;18038;50.166;18.908;2022-09-13T04:03:28;97777.94;;;8.42;81.40
21401;BME280;18038;50.166;18.908;2022-09-13T04:06:34;97772.81;;;8.41;81.39
21401;BME280;18038;50.166;18.908;2022-09-13T04:09:39;97774.91;;;8.45;81.29
21401;BME280;18038;50.166;18.908;2022-09-13T04:12:45;97769.53;;;8.60;80.74
21401;BME280;18038;50.166;18.908;2022-09-13T04:15:54;97774.47;;;8.63;80.23
21401;BME280;18038;50.166;18.908;2022-09-13T04:19:00;97774.81;;;8.54;80.35
21401;BME280;18038;50.166;18.908;2022-09-13T04:22:06;97779.28;;;8.53;80.55
21401;BME280;18038;50.166;18.908;2022-09-13T04:25:20;97782.66;;;8.62;80.06
21401;BME280;18038;50.166;18.908;2022-09-13T04:28:28;97771.00;;;8.63;80.17
21401;BME280;18038;50.166;18.908;2022-09-13T04:31:37;97778.84;;;8.50;80.84
21401;BME280;18038;50.166;18.908;2022-09-13T04:34:42;97776.00;;;8.51;80.52
21401;BME280;18038;50.166;18.908;2022-09-13T04:37:48;97774.81;;;8.54;80.59
21401;BME280;18038;50.166;18.908;2022-09-13T04:40:55;97772.63;;;8.64;80.14
21401;BME280;18038;50.166;18.908;2022-09-13T04:44:02;97775.13;;;8.65;80.12
21401;BME280;18038;50.166;18.908;2022-09-13T04:47:11;97772.84;;;8.62;80.31
21401;BME280;18038;50.166;18.908;2022-09-13T04:50:16;97775.75;;;8.68;80.01
21401;BME280;18038;50.166;18.908;2022-09-13T04:53:23;97768.72;;;8.60;80.29
21401;BME280;18038;50.166;18.908;2022-09-13T04:56:29;97766.06;;;8.60;80.20
21401;BME280;18038;50.166;18.908;2022-09-13T04:59:35;97770.69;;;8.51;80.53
21401;BME280;18038;50.166;18.908;2022-09-13T05:02:43;97772.88;;;8.48;80.57
21401;BME280;18038;50.166;18.908;2022-09-13T05:05:48;97776.06;;;8.58;80.83
21401;BME280;18038;50.166;18.908;2022-09-13T05:08:55;97769.63;;;8.67;80.41
21401;BME280;18038;50.166;18.908;2022-09-13T05:12:03;97770.94;;;8.78;79.76
21401;BME280;18038;50.166;18.908;2022-09-13T05:15:10;97772.41;;;8.80;79.58
21401;BME280;18038;50.166;18.908;2022-09-13T05:18:28;97771.53;;;8.95;79.56
21401;BME280;18038;50.166;18.908;2022-09-13T05:21:35;97765.19;;;8.96;79.42
21401;BME280;18038;50.166;18.908;2022-09-13T05:24:41;97771.75;;;9.21;78.98
21401;BME280;18038;50.166;18.908;2022-09-13T05:27:47;97778.06;;;10.05;76.22
21401;BME280;18038;50.166;18.908;2022-09-13T05:30:54;97771.88;;;10.46;74.60
21401;BME280;18038;50.166;18.908;2022-09-13T05:34:06;97775.44;;;10.86;73.17
21401;BME280;18038;50.166;18.908;2022-09-13T05:37:13;97782.06;;;11.37;71.99
21401;BME280;18038;50.166;18.908;2022-09-13T05:40:19;97774.97;;;12.09;67.75
21401;BME280;18038;50.166;18.908;2022-09-13T05:43:38;97777.22;;;12.70;65.59
21401;BME280;18038;50.166;18.908;2022-09-13T05:46:46;97782.66;;;13.20;63.69
21401;BME280;18038;50.166;18.908;2022-09-13T05:50:06;97780.47;;;14.04;59.82
21401;BME280;18038;50.166;18.908;2022-09-13T05:53:28;97784.25;;;13.78;60.17
21401;BME280;18038;50.166;18.908;2022-09-13T05:56:34;97780.50;;;14.34;57.69
21401;BME280;18038;50.166;18.908;2022-09-13T05:59:39;97783.94;;;14.42;58.49
21401;BME280;18038;50.166;18.908;2022-09-13T06:02:45;97776.19;;;15.24;56.52
21401;BME280;18038;50.166;18.908;2022-09-13T06:05:57;97786.75;;;15.61;53.45
21401;BME280;18038;50.166;18.908;2022-09-13T06:09:04;97786.16;;;15.71;53.28
21401;BME280;18038;50.166;18.908;2022-09-13T06:12:10;97782.84;;;15.21;54.25
21401;BME280;18038;50.166;18.908;2022-09-13T06:15:16;97786.25;;;15.40;53.56
21401;BME280;18038;50.166;18.908;2022-09-13T06:18:29;97786.41;;;14.92;55.23
21401;BME280;18038;50.166;18.908;2022-09-13T06:21:44;97784.53;;;15.81;52.82
21401;BME280;18038;50.166;18.908;2022-09-13T06:24:50;97782.69;;;16.34;51.78
21401;BME280;18038;50.166;18.908;2022-09-13T06:27:56;97774.53;;;16.69;50.16
21401;BME280;18038;50.166;18.908;2022-09-13T06:31:04;97780.31;;;16.49;51.16
21401;BME280;18038;50.166;18.908;2022-09-13T06:34:15;97773.47;;;16.70;51.23
21401;BME280;18038;50.166;18.908;2022-09-13T06:37:23;97779.56;;;16.25;51.81
21401;BME280;18038;50.166;18.908;2022-09-13T06:40:29;97784.72;;;16.27;52.04
21401;BME280;18038;50.166;18.908;2022-09-13T06:43:36;97782.97;;;16.32;51.64
21401;BME280;18038;50.166;18.908;2022-09-13T06:46:44;97777.25;;;16.17;52.71
21401;BME280;18038;50.166;18.908;2022-09-13T06:49:50;97771.66;;;15.83;54.28
21401;BME280;18038;50.166;18.908;2022-09-13T06:52:58;97772.47;;;15.96;53.83
21401;BME280;18038;50.166;18.908;2022-09-13T06:56:06;97771.41;;;15.38;55.25
21401;BME280;18038;50.166;18.908;2022-09-13T06:59:13;97772.13;;;15.68;54.57
21401;BME280;18038;50.166;18.908;2022-09-13T07:02:18;97761.81;;;15.42;54.70
21401;BME280;18038;50.166;18.908;2022-09-13T07:05:27;97761.66;;;15.13;56.15
21401;BME280;18038;50.166;18.908;2022-09-13T07:08:36;97763.78;;;15.70;54.85
21401;BME280;18038;50.166;18.908;2022-09-13T07:11:44;97768.06;;;15.00;56.43
21401;BME280;18038;50.166;18.908;2022-09-13T07:14:51;97762.16;;;15.34;55.96
21401;BME280;18038;50.166;18.908;2022-09-13T07:18:03;97765.56;;;14.87;57.30
21401;BME280;18038;50.166;18.908;2022-09-13T07:21:12;97769.53;;;15.27;56.49
21401;BME280;18038;50.166;18.908;2022-09-13T07:24:22;97761.00;;;14.88;57.16
21401;BME280;18038;50.166;18.908;2022-09-13T07:27:30;97766.25;;;15.48;56.54
21401;BME280;18038;50.166;18.908;2022-09-13T07:30:35;97764.06;;;15.92;55.76
21401;BME280;18038;50.166;18.908;2022-09-13T07:33:43;97761.38;;;15.92;54.83
21401;BME280;18038;50.166;18.908;2022-09-13T07:36:55;97760.50;;;15.68;55.96
21401;BME280;18038;50.166;18.908;2022-09-13T07:40:08;97763.13;;;15.75;56.31
21401;BME280;18038;50.166;18.908;2022-09-13T07:43:22;97768.25;;;16.11;55.10
21401;BME280;18038;50.166;18.908;2022-09-13T07:46:30;97753.13;;;16.51;54.35
21401;BME280;18038;50.166;18.908;2022-09-13T07:49:38;97760.19;;;16.97;52.76
21401;BME280;18038;50.166;18.908;2022-09-13T07:52:46;97764.56;;;17.83;51.07
21401;BME280;18038;50.166;18.908;2022-09-13T07:55:59;97769.47;;;19.23;47.85
21401;BME280;18038;50.166;18.908;2022-09-13T07:59:11;97761.63;;;20.01;45.41
21401;BME280;18038;50.166;18.908;2022-09-13T08:02:18;97759.84;;;19.80;44.62
21401;BME280;18038;50.166;18.908;2022-09-13T08:05:23;97762.25;;;20.14;44.13
21401;BME280;18038;50.166;18.908;2022-09-13T08:08:30;97761.03;;;20.52;43.12
21401;BME280;18038;50.166;18.908;2022-09-13T08:11:41;97759.91;;;19.90;43.39
21401;BME280;18038;50.166;18.908;2022-09-13T08:14:58;97764.56;;;20.53;42.64
21401;BME280;18038;50.166;18.908;2022-09-13T08:18:06;97746.50;;;20.89;42.02
21401;BME280;18038;50.166;18.908;2022-09-13T08:21:11;97747.31;;;21.05;41.94
21401;BME280;18038;50.166;18.908;2022-09-13T08:24:20;97739.47;;;21.44;42.12
21401;BME280;18038;50.166;18.908;2022-09-13T08:27:30;97746.53;;;21.25;40.47
21401;BME280;18038;50.166;18.908;2022-09-13T08:30:36;97749.78;;;21.06;41.16
21401;BME280;18038;50.166;18.908;2022-09-13T08:33:43;97740.81;;;21.21;41.68
21401;BME280;18038;50.166;18.908;2022-09-13T08:36:51;97734.28;;;21.73;40.48
21401;BME280;18038;50.166;18.908;2022-09-13T08:39:56;97740.25;;;21.86;39.26
21401;BME280;18038;50.166;18.908;2022-09-13T08:43:12;97735.47;;;20.33;42.20
21401;BME280;18038;50.166;18.908;2022-09-13T08:46:32;97739.75;;;21.32;40.94
21401;BME280;18038;50.166;18.908;2022-09-13T08:49:45;97725.19;;;22.19;39.13
21401;BME280;18038;50.166;18.908;2022-09-13T08:53:04;97723.22;;;22.35;37.94
21401;BME280;18038;50.166;18.908;2022-09-13T08:56:22;97721.28;;;21.50;39.09
21401;BME280;18038;50.166;18.908;2022-09-13T08:59:49;97729.44;;;21.34;39.71
21401;BME280;18038;50.166;18.908;2022-09-13T09:03:19;97730.50;;;21.44;40.32
21401;BME280;18038;50.166;18.908;2022-09-13T09:06:35;97724.69;;;22.07;39.49
21401;BME280;18038;50.166;18.908;2022-09-13T09:09:48;97723.97;;;21.55;38.24
21401;BME280;18038;50.166;18.908;2022-09-13T09:13:02;97716.38;;;21.31;40.46
21401;BME280;18038;50.166;18.908;2022-09-13T09:16:27;97719.88;;;20.76;40.84
21401;BME280;18038;50.166;18.908;2022-09-13T09:19:42;97716.53;;;19.10;43.71
21401;BME280;18038;50.166;18.908;2022-09-13T09:22:55;97715.44;;;19.44;44.23
21401;BME280;18038;50.166;18.908;2022-09-13T09:26:13;97706.59;;;20.74;40.87
21401;BME280;18038;50.166;18.908;2022-09-13T09:29:24;97708.22;;;21.42;40.44
21401;BME280;18038;50.166;18.908;2022-09-13T09:32:58;97712.84;;;21.67;38.68
21401;BME280;18038;50.166;18.908;2022-09-13T09:36:32;97711.09;;;22.17;37.91
21401;BME280;18038;50.166;18.908;2022-09-13T09:39:45;97711.38;;;21.95;38.59
21401;BME280;18038;50.166;18.908;2022-09-13T09:42:50;97706.41;;;22.28;36.95
21401;BME280;18038;50.166;18.908;2022-09-13T09:46:00;97704.44;;;22.88;36.39
21401;BME280;18038;50.166;18.908;2022-09-13T09:49:17;97696.28;;;23.51;34.79
21401;BME280;18038;50.166;18.908;2022-09-13T09:52:45;97689.66;;;22.99;35.88
21401;BME280;18038;50.166;18.908;2022-09-13T09:56:01;97691.38;;;22.80;36.34
21401;BME280;18038;50.166;18.908;2022-09-13T09:59:24;97691.22;;;23.05;36.05
21401;BME280;18038;50.166;18.908;2022-09-13T10:02:36;97685.84;;;23.29;35.49
21401;BME280;18038;50.166;18.908;2022-09-13T10:06:04;97687.03;;;23.47;34.87
21401;BME280;18038;50.166;18.908;2022-09-13T10:09:16;97670.66;;;22.89;36.58
21401;BME280;18038;50.166;18.908;2022-09-13T10:12:30;97683.63;;;23.90;36.54
21401;BME280;18038;50.166;18.908;2022-09-13T10:15:52;97681.81;;;23.22;35.82
21401;BME280;18038;50.166;18.908;2022-09-13T10:19:19;97686.88;;;23.39;35.65
21401;BME280;18038;50.166;18.908;2022-09-13T10:22:32;97670.03;;;23.31;35.44
21401;BME280;18038;50.166;18.908;2022-09-13T10:26:05;97668.25;;;24.23;34.52
21401;BME280;18038;50.166;18.908;2022-09-13T10:29:16;97664.94;;;24.45;34.05
21401;BME280;18038;50.166;18.908;2022-09-13T10:32:23;97668.13;;;24.52;32.27
21401;BME280;18038;50.166;18.908;2022-09-13T10:35:29;97658.66;;;24.63;32.06
21401;BME280;18038;50.166;18.908;2022-09-13T10:38:40;97661.03;;;25.22;31.81
21401;BME280;18038;50.166;18.908;2022-09-13T10:41:56;97666.78;;;24.69;32.89
21401;BME280;18038;50.166;18.908;2022-09-13T10:45:06;97659.31;;;24.93;32.55
21401;BME280;18038;50.166;18.908;2022-09-13T10:48:23;97653.69;;;24.47;33.23
21401;BME280;18038;50.166;18.908;2022-09-13T10:51:36;97653.38;;;24.10;33.49
21401;BME280;18038;50.166;18.908;2022-09-13T10:54:45;97646.47;;;24.18;31.74
21401;BME280;18038;50.166;18.908;2022-09-13T10:57:52;97640.88;;;24.47;31.99
21401;BME280;18038;50.166;18.908;2022-09-13T11:01:16;97631.56;;;24.67;31.34
21401;BME280;18038;50.166;18.908;2022-09-13T11:05:16;97634.00;;;24.88;30.33
21401;BME280;18038;50.166;18.908;2022-09-13T11:08:50;97630.31;;;24.40;31.73
21401;BME280;18038;50.166;18.908;2022-09-13T11:12:24;97624.56;;;22.98;34.21
21401;BME280;18038;50.166;18.908;2022-09-13T11:15:49;97626.66;;;22.72;33.97
21401;BME280;18038;50.166;18.908;2022-09-13T11:19:23;97624.38;;;23.18;33.62
21401;BME280;18038;50.166;18.908;2022-09-13T11:23:05;97613.53;;;23.13;35.81
21401;BME280;18038;50.166;18.908;2022-09-13T11:26:44;97609.03;;;22.98;34.96
21401;BME280;18038;50.166;18.908;2022-09-13T11:30:09;97609.00;;;23.57;34.19
21401;BME280;18038;50.166;18.908;2022-09-13T11:33:37;97596.97;;;23.63;33.00
21401;BME280;18038;50.166;18.908;2022-09-13T11:37:07;97576.78;;;22.47;33.92
21401;BME280;18038;50.166;18.908;2022-09-13T11:40:38;97583.50;;;22.94;34.36
21401;BME280;18038;50.166;18.908;2022-09-13T11:44:20;97575.03;;;23.49;32.85
21401;BME280;18038;50.166;18.908;2022-09-13T11:47:56;97568.41;;;23.79;33.82
21401;BME280;18038;50.166;18.908;2022-09-13T11:51:42;97558.38;;;22.34;34.85
21401;BME280;18038;50.166;18.908;2022-09-13T11:55:13;97551.06;;;20.84;36.76
21401;BME280;18038;50.166;18.908;2022-09-13T11:58:28;97554.41;;;19.67;40.51
21401;BME280;18038;50.166;18.908;2022-09-13T12:01:44;97556.00;;;19.68;41.53
21401;BME280;18038;50.166;18.908;2022-09-13T12:05:02;97549.97;;;20.18;39.90
21401;BME280;18038;50.166;18.908;2022-09-13T12:08:34;97527.19;;;20.30;39.49
21401;BME280;18038;50.166;18.908;2022-09-13T12:11:48;97522.91;;;19.45;41.79
21401;BME280;18038;50.166;18.908;2022-09-13T12:15:03;97512.69;;;18.62;42.64
21401;BME280;18038;50.166;18.908;2022-09-13T12:18:20;97524.97;;;18.16;43.65
21401;BME280;18038;50.166;18.908;2022-09-13T12:21:37;97534.69;;;18.39;44.27
21401;BME280;18038;50.166;18.908;2022-09-13T12:24:50;97522.81;;;18.45;44.42
21401;BME280;18038;50.166;18.908;2022-09-13T12:28:09;97524.59;;;18.34;43.42
21401;BME280;18038;50.166;18.908;2022-09-13T12:31:25;97524.00;;;18.27;44.39
21401;BME280;18038;50.166;18.908;2022-09-13T12:34:45;97514.59;;;18.67;44.74
21401;BME280;18038;50.166;18.908;2022-09-13T12:38:27;97510.19;;;18.23;45.26
21401;BME280;18038;50.166;18.908;2022-09-13T12:41:57;97502.13;;;18.28;45.28
21401;BME280;18038;50.166;18.908;2022-09-13T12:45:46;97504.69;;;18.13;45.53
21401;BME280;18038;50.166;18.908;2022-09-13T12:49:42;97505.63;;;18.29;46.52
21401;BME280;18038;50.166;18.908;2022-09-13T12:53:51;97507.63;;;18.06;46.61
21401;BME280;18038;50.166;18.908;2022-09-13T12:57:26;97503.16;;;18.22;47.21
21401;BME280;18038;50.166;18.908;2022-09-13T13:01:04;97505.59;;;18.24;46.64
21401;BME280;18038;50.166;18.908;2022-09-13T13:04:24;97494.94;;;17.80;46.68
21401;BME280;18038;50.166;18.908;2022-09-13T13:07:37;97496.00;;;18.11;46.55
21401;BME280;18038;50.166;18.908;2022-09-13T13:11:04;97494.44;;;17.83;48.17
21401;BME280;18038;50.166;18.908;2022-09-13T13:14:47;97492.78;;;18.09;47.78
21401;BME280;18038;50.166;18.908;2022-09-13T13:17:55;97490.13;;;17.87;48.92
21401;BME280;18038;50.166;18.908;2022-09-13T13:21:34;97485.25;;;17.57;48.59
21401;BME280;18038;50.166;18.908;2022-09-13T13:24:45;97483.91;;;17.59;49.54
21401;BME280;18038;50.166;18.908;2022-09-13T13:27:55;97468.63;;;17.70;48.97
21401;BME280;18038;50.166;18.908;2022-09-13T13:31:02;97465.97;;;17.75;50.36
21401;BME280;18038;50.166;18.908;2022-09-13T13:34:27;97473.41;;;17.90;49.67
21401;BME280;18038;50.166;18.908;2022-09-13T13:37:44;97474.13;;;17.80;50.11
21401;BME280;18038;50.166;18.908;2022-09-13T13:40:51;97463.06;;;17.82;49.60
21401;BME280;18038;50.166;18.908;2022-09-13T13:48:12;97462.16;;;18.03;49.45
21401;BME280;18038;50.166;18.908;2022-09-13T13:51:24;97449.06;;;18.17;48.36
21401;BME280;18038;50.166;18.908;2022-09-13T13:54:58;97451.09;;;18.37;48.23
21401;BME280;18038;50.166;18.908;2022-09-13T13:58:28;97442.06;;;18.21;48.01
21401;BME280;18038;50.166;18.908;2022-09-13T14:01:51;97441.81;;;18.23;47.88
21401;BME280;18038;50.166;18.908;2022-09-13T14:05:09;97445.78;;;18.47;48.71
21401;BME280;18038;50.166;18.908;2022-09-13T14:08:48;97446.66;;;18.58;47.55
21401;BME280;18038;50.166;18.908;2022-09-13T14:12:24;97439.16;;;18.70;48.02
21401;BME280;18038;50.166;18.908;2022-09-13T14:15:54;97434.31;;;18.78;46.66
21401;BME280;18038;50.166;18.908;2022-09-13T14:19:29;97432.63;;;18.66;46.44
21401;BME280;18038;50.166;18.908;2022-09-13T14:22:38;97424.56;;;18.71;46.19
21401;BME280;18038;50.166;18.908;2022-09-13T14:25:53;97428.38;;;18.76;45.96
21401;BME280;18038;50.166;18.908;2022-09-13T14:29:06;97420.81;;;18.83;45.84
21401;BME280;18038;50.166;18.908;2022-09-13T14:32:17;97424.28;;;18.68;45.61
21401;BME280;18038;50.166;18.908;2022-09-13T14:35:35;97426.19;;;18.72;46.42
21401;BME280;18038;50.166;18.908;2022-09-13T14:38:48;97424.63;;;18.87;45.60
21401;BME280;18038;50.166;18.908;2022-09-13T14:41:59;97430.41;;;18.53;46.78
21401;BME280;18038;50.166;18.908;2022-09-13T14:45:12;97423.09;;;18.54;46.65
21401;BME280;18038;50.166;18.908;2022-09-13T14:48:24;97424.00;;;18.69;46.41
21401;BME280;18038;50.166;18.908;2022-09-13T14:51:44;97431.06;;;18.33;46.49
21401;BME280;18038;50.166;18.908;2022-09-13T14:54:58;97415.53;;;18.18;47.06
21401;BME280;18038;50.166;18.908;2022-09-13T14:58:15;97415.09;;;18.32;46.65
21401;BME280;18038;50.166;18.908;2022-09-13T15:01:28;97405.34;;;18.25;47.17
21401;BME280;18038;50.166;18.908;2022-09-13T15:04:39;97411.19;;;18.12;47.07
21401;BME280;18038;50.166;18.908;2022-09-13T15:07:54;97399.78;;;18.05;47.80
21401;BME280;18038;50.166;18.908;2022-09-13T15:11:01;97404.66;;;18.08;48.21
21401;BME280;18038;50.166;18.908;2022-09-13T15:14:28;97406.84;;;18.11;47.75
21401;BME280;18038;50.166;18.908;2022-09-13T15:17:56;97393.28;;;18.06;48.29
21401;BME280;18038;50.166;18.908;2022-09-13T15:21:05;97392.75;;;18.04;48.59
21401;BME280;18038;50.166;18.908;2022-09-13T15:24:29;97397.38;;;17.76;49.33
21401;BME280;18038;50.166;18.908;2022-09-13T15:27:43;97390.09;;;17.77;49.19
21401;BME280;18038;50.166;18.908;2022-09-13T15:30:52;97387.84;;;18.01;49.08
21401;BME280;18038;50.166;18.908;2022-09-13T15:34:11;97384.72;;;17.82;49.80
21401;BME280;18038;50.166;18.908;2022-09-13T15:37:36;97383.56;;;18.05;49.61
21401;BME280;18038;50.166;18.908;2022-09-13T15:40:47;97376.53;;;18.04;49.39
21401;BME280;18038;50.166;18.908;2022-09-13T15:44:05;97388.81;;;18.22;49.04
21401;BME280;18038;50.166;18.908;2022-09-13T15:47:16;97385.53;;;18.15;49.15
21401;BME280;18038;50.166;18.908;2022-09-13T15:50:26;97370.59;;;18.07;49.24
21401;BME280;18038;50.166;18.908;2022-09-13T15:53:35;97376.13;;;18.22;48.66
21401;BME280;18038;50.166;18.908;2022-09-13T15:56:46;97382.22;;;18.07;49.97
21401;BME280;18038;50.166;18.908;2022-09-13T15:59:55;97383.53;;;18.00;49.47
21401;BME280;18038;50.166;18.908;2022-09-13T16:03:10;97394.09;;;18.01;49.61
21401;BME280;18038;50.166;18.908;2022-09-13T16:06:16;97392.41;;;17.95;49.71
21401;BME280;18038;50.166;18.908;2022-09-13T16:09:25;97383.25;;;17.64;50.14
21401;BME280;18038;50.166;18.908;2022-09-13T16:12:35;97385.78;;;17.49;50.50
21401;BME280;18038;50.166;18.908;2022-09-13T16:15:40;97379.81;;;17.47;50.44
21401;BME280;18038;50.166;18.908;2022-09-13T16:18:46;97377.41;;;17.23;50.68
21401;BME280;18038;50.166;18.908;2022-09-13T16:21:52;97376.53;;;17.17;51.55
21401;BME280;18038;50.166;18.908;2022-09-13T16:24:57;97375.47;;;17.18;51.28
21401;BME280;18038;50.166;18.908;2022-09-13T16:28:07;97371.66;;;17.14;51.19
21401;BME280;18038;50.166;18.908;2022-09-13T16:31:13;97370.69;;;16.98;52.38
21401;BME280;18038;50.166;18.908;2022-09-13T16:34:21;97365.28;;;16.76;52.75
21401;BME280;18038;50.166;18.908;2022-09-13T16:37:27;97373.16;;;16.61;53.41
21401;BME280;18038;50.166;18.908;2022-09-13T16:40:32;97377.13;;;16.75;53.41
21401;BME280;18038;50.166;18.908;2022-09-13T16:43:41;97374.63;;;16.69;53.52
21401;BME280;18038;50.166;18.908;2022-09-13T16:46:50;97371.44;;;16.55;53.82
21401;BME280;18038;50.166;18.908;2022-09-13T16:49:56;97374.91;;;16.50;54.05
21401;BME280;18038;50.166;18.908;2022-09-13T16:53:02;97377.34;;;16.52;53.84
21401;BME280;18038;50.166;18.908;2022-09-13T16:56:09;97378.78;;;16.60;53.93
21401;BME280;18038;50.166;18.908;2022-09-13T16:59:20;97380.31;;;16.50;54.00
21401;BME280;18038;50.166;18.908;2022-09-13T17:02:26;97376.84;;;16.55;54.30
21401;BME280;18038;50.166;18.908;2022-09-13T17:05:32;97374.84;;;16.45;54.65
21401;BME280;18038;50.166;18.908;2022-09-13T17:08:41;97368.81;;;16.38;54.83
21401;BME280;18038;50.166;18.908;2022-09-13T17:11:53;97364.34;;;16.10;55.42
21401;BME280;18038;50.166;18.908;2022-09-13T17:15:02;97354.34;;;16.05;55.39